Time,TemperatureF,DewpointF,PressureIn,WindDirection,WindDirectionDegrees,WindSpeedMPH,WindSpeedGustMPH,Humidity,HourlyPrecipIn,Conditions,Clouds,dailyrainin,SoftwareType,DateUTC
2013-03-04 00:02:00,27.3,1.9,30.20,North,0,8.0,11.0,33,0.00,,,0.00,meteohub,2013-03-04 06:02:00,
2013-03-04 00:07:00,27.3,2.7,30.19,WNW,293,4.0,9.0,34,0.00,,,0.00,meteohub,2013-03-04 06:07:00,
2013-03-04 00:12:00,27.3,2.7,30.19,North,0,8.0,8.0,34,0.00,,,0.00,meteohub,2013-03-04 06:12:00,
2013-03-04 00:17:00,27.3,2.7,30.20,North,0,6.0,8.0,34,0.00,,,0.00,meteohub,2013-03-04 06:17:00,
2013-03-04 00:22:00,27.3,3.2,30.20,NW,315,4.0,8.0,35,0.00,,,0.00,meteohub,2013-03-04 06:22:00,
2013-03-04 00:27:00,27.3,3.9,30.19,North,0,4.0,8.0,36,0.00,,,0.00,meteohub,2013-03-04 06:27:00,
2013-03-04 00:32:00,27.3,3.9,30.19,North,0,4.0,8.0,36,0.00,,,0.00,meteohub,2013-03-04 06:32:00,
2013-03-04 00:37:00,27.3,4.5,30.19,NE,45,10.0,10.0,37,0.00,,,0.00,meteohub,2013-03-04 06:37:00,
2013-03-04 00:42:00,27.5,5.2,30.19,North,0,8.0,12.0,38,0.00,,,0.00,meteohub,2013-03-04 06:42:00,
2013-03-04 00:47:00,27.5,5.2,30.19,North,0,5.0,12.0,38,0.00,,,0.00,meteohub,2013-03-04 06:47:00,
2013-03-04 00:52:00,27.5,5.2,30.20,ESE,113,10.0,12.0,38,0.00,,,0.00,meteohub,2013-03-04 06:52:00,
2013-03-04 00:58:00,27.5,5.2,30.20,North,0,9.0,11.0,38,0.00,,,0.00,meteohub,2013-03-04 06:58:00,
2013-03-04 01:03:00,27.5,5.2,30.20,North,0,8.0,11.0,38,0.00,,,0.00,meteohub,2013-03-04 07:03:00,
2013-03-04 01:08:00,27.3,5.0,30.20,North,0,8.0,10.0,38,0.00,,,0.00,meteohub,2013-03-04 07:08:00,
2013-03-04 01:13:00,27.3,5.0,30.20,NW,315,8.0,9.0,38,0.00,,,0.00,meteohub,2013-03-04 07:13:00,
2013-03-04 01:18:00,27.3,5.0,30.20,NW,315,8.0,11.0,38,0.00,,,0.00,meteohub,2013-03-04 07:18:00,
2013-03-04 01:23:00,27.3,5.0,30.20,NW,315,8.0,11.0,38,0.00,,,0.00,meteohub,2013-03-04 07:23:00,
2013-03-04 01:28:00,27.3,5.0,30.19,NW,315,5.0,11.0,38,0.00,,,0.00,meteohub,2013-03-04 07:28:00,
2013-03-04 01:33:00,27.3,5.5,30.19,North,0,7.0,11.0,39,0.00,,,0.00,meteohub,2013-03-04 07:33:00,
2013-03-04 01:38:00,27.1,5.5,30.19,NE,45,8.0,11.0,39,0.00,,,0.00,meteohub,2013-03-04 07:38:00,
2013-03-04 01:43:00,27.1,5.5,30.19,North,0,8.0,9.0,39,0.00,,,0.00,meteohub,2013-03-04 07:43:00,
2013-03-04 01:48:00,27.1,5.5,30.19,North,0,5.0,13.0,39,0.00,,,0.00,meteohub,2013-03-04 07:48:00,
2013-03-04 01:53:00,27.1,5.5,30.19,NW,315,10.0,13.0,39,0.00,,,0.00,meteohub,2013-03-04 07:53:00,
2013-03-04 01:58:00,27.1,5.5,30.19,NW,315,8.0,11.0,39,0.00,,,0.00,meteohub,2013-03-04 07:58:00,
2013-03-04 02:03:00,27.1,5.5,30.19,North,0,4.0,11.0,39,0.00,,,0.00,meteohub,2013-03-04 08:03:00,
2013-03-04 02:08:00,27.1,5.5,30.19,North,0,6.0,11.0,39,0.00,,,0.00,meteohub,2013-03-04 08:08:00,
2013-03-04 02:13:00,27.1,6.1,30.19,North,0,8.0,11.0,40,0.00,,,0.00,meteohub,2013-03-04 08:13:00,
2013-03-04 02:18:00,27.1,6.1,30.18,North,0,8.0,12.0,40,0.00,,,0.00,meteohub,2013-03-04 08:18:00,
2013-03-04 02:23:00,27.0,5.9,30.18,North,0,16.0,16.0,40,0.00,,,0.00,meteohub,2013-03-04 08:23:00,
2013-03-04 02:28:00,27.0,5.9,30.18,North,0,10.0,15.0,40,0.00,,,0.00,meteohub,2013-03-04 08:28:00,
2013-03-04 02:33:00,27.0,5.9,30.18,North,0,4.0,16.0,40,0.00,,,0.00,meteohub,2013-03-04 08:33:00,
2013-03-04 02:38:00,27.0,5.9,30.18,North,0,7.0,16.0,40,0.00,,,0.00,meteohub,2013-03-04 08:38:00,
2013-03-04 02:43:00,26.8,5.7,30.17,NW,315,11.0,11.0,40,0.00,,,0.00,meteohub,2013-03-04 08:43:00,
2013-03-04 02:49:00,26.8,5.7,30.17,North,0,8.0,11.0,40,0.00,,,0.00,meteohub,2013-03-04 08:49:00,
2013-03-04 02:54:00,26.8,5.7,30.17,NW,315,4.0,11.0,40,0.00,,,0.00,meteohub,2013-03-04 08:54:00,
2013-03-04 02:59:00,26.8,5.7,30.17,North,0,8.0,11.0,40,0.00,,,0.00,meteohub,2013-03-04 08:59:00,
2013-03-04 03:04:00,26.8,5.7,30.17,North,0,11.0,11.0,40,0.00,,,0.00,meteohub,2013-03-04 09:04:00,
2013-03-04 03:09:00,26.8,5.7,30.17,North,0,10.0,10.0,40,0.00,,,0.00,meteohub,2013-03-04 09:09:00,
2013-03-04 03:14:00,26.8,5.7,30.16,North,0,9.0,13.0,40,0.00,,,0.00,meteohub,2013-03-04 09:14:00,
2013-03-04 03:19:00,26.8,5.7,30.16,NW,315,6.0,13.0,40,0.00,,,0.00,meteohub,2013-03-04 09:19:00,
2013-03-04 03:24:00,26.8,5.7,30.16,North,0,10.0,13.0,40,0.00,,,0.00,meteohub,2013-03-04 09:24:00,
2013-03-04 03:29:00,26.8,5.7,30.16,NW,315,8.0,12.0,40,0.00,,,0.00,meteohub,2013-03-04 09:29:00,
2013-03-04 03:34:00,26.8,5.7,30.15,NW,315,11.0,12.0,40,0.00,,,0.00,meteohub,2013-03-04 09:34:00,
2013-03-04 03:39:00,26.8,5.7,30.15,NW,315,6.0,12.0,40,0.00,,,0.00,meteohub,2013-03-04 09:39:00,
2013-03-04 03:44:00,26.8,5.7,30.15,North,0,10.0,11.0,40,0.00,,,0.00,meteohub,2013-03-04 09:44:00,
2013-03-04 03:49:00,26.8,5.7,30.15,NW,315,9.0,11.0,40,0.00,,,0.00,meteohub,2013-03-04 09:49:00,
2013-03-04 03:54:00,26.8,6.3,30.15,NW,315,6.0,13.0,41,0.00,,,0.00,meteohub,2013-03-04 09:54:00,
2013-03-04 03:59:00,26.8,5.7,30.15,North,0,8.0,13.0,40,0.00,,,0.00,meteohub,2013-03-04 09:59:00,
2013-03-04 04:04:00,26.8,5.7,30.15,North,0,8.0,17.0,40,0.00,,,0.00,meteohub,2013-03-04 10:04:00,
2013-03-04 04:09:00,26.8,5.7,30.16,North,0,7.0,17.0,40,0.00,,,0.00,meteohub,2013-03-04 10:09:00,
2013-03-04 04:14:00,26.8,5.7,30.15,North,0,5.0,17.0,40,0.00,,,0.00,meteohub,2013-03-04 10:14:00,
2013-03-04 04:19:00,27.0,5.9,30.16,NW,315,11.0,11.0,40,0.00,,,0.00,meteohub,2013-03-04 10:19:00,
2013-03-04 04:24:00,27.0,5.9,30.15,North,0,8.0,13.0,40,0.00,,,0.00,meteohub,2013-03-04 10:24:00,
2013-03-04 04:30:00,27.0,5.4,30.15,NW,315,7.0,13.0,39,0.00,,,0.00,meteohub,2013-03-04 10:30:00,
2013-03-04 04:35:00,27.0,5.4,30.16,North,0,11.0,13.0,39,0.00,,,0.00,meteohub,2013-03-04 10:35:00,
2013-03-04 04:40:00,27.0,5.4,30.15,North,0,8.0,13.0,39,0.00,,,0.00,meteohub,2013-03-04 10:40:00,
2013-03-04 04:45:00,26.8,5.2,30.15,North,0,11.0,12.0,39,0.00,,,0.00,meteohub,2013-03-04 10:45:00,
2013-03-04 04:50:00,27.0,5.4,30.16,North,0,9.0,14.0,39,0.00,,,0.00,meteohub,2013-03-04 10:50:00,
2013-03-04 04:55:00,27.0,5.4,30.16,North,0,14.0,14.0,39,0.00,,,0.00,meteohub,2013-03-04 10:55:00,
2013-03-04 05:00:00,26.8,5.2,30.16,NW,315,8.0,14.0,39,0.00,,,0.00,meteohub,2013-03-04 11:00:00,
2013-03-04 05:05:00,26.8,5.2,30.16,North,0,11.0,17.0,39,0.00,,,0.00,meteohub,2013-03-04 11:05:00,
2013-03-04 05:10:00,26.6,5.0,30.16,NW,315,11.0,17.0,39,0.00,,,0.00,meteohub,2013-03-04 11:10:00,
2013-03-04 05:15:00,26.4,5.9,30.16,North,0,15.0,19.0,41,0.00,,,0.00,meteohub,2013-03-04 11:15:00,
2013-03-04 05:20:00,26.2,6.3,30.16,North,0,9.0,19.0,42,0.00,,,0.00,meteohub,2013-03-04 11:20:00,
2013-03-04 05:25:00,26.2,6.3,30.16,North,0,8.0,19.0,42,0.00,,,0.00,meteohub,2013-03-04 11:25:00,
2013-03-04 05:30:00,26.1,7.2,30.17,North,0,19.0,19.0,44,0.00,,,0.00,meteohub,2013-03-04 11:30:00,
2013-03-04 05:35:00,25.5,8.6,30.17,North,0,11.0,19.0,48,0.00,,,0.00,meteohub,2013-03-04 11:35:00,
2013-03-04 05:40:00,25.2,9.5,30.17,NE,45,14.0,21.0,51,0.00,,,0.00,meteohub,2013-03-04 11:40:00,
2013-03-04 05:45:00,24.8,10.0,30.17,NW,315,14.0,21.0,53,0.00,,,0.00,meteohub,2013-03-04 11:45:00,
2013-03-04 05:50:00,24.4,11.5,30.17,NW,315,13.0,21.0,57,0.00,,,0.00,meteohub,2013-03-04 11:50:00,
2013-03-04 05:55:00,24.3,12.4,30.17,NW,315,15.0,20.0,60,0.00,,,0.00,meteohub,2013-03-04 11:55:00,
2013-03-04 06:00:00,24.1,12.6,30.17,WNW,293,11.0,19.0,61,0.00,,,0.00,meteohub,2013-03-04 12:00:00,
2013-03-04 06:05:00,24.1,12.6,30.17,WNW,293,11.0,19.0,61,0.00,,,0.00,meteohub,2013-03-04 12:05:00,
2013-03-04 06:11:00,23.9,13.1,30.17,North,0,8.0,15.0,63,0.00,,,0.00,meteohub,2013-03-04 12:11:00,
2013-03-04 06:16:00,23.9,13.5,30.17,North,0,11.0,11.0,64,0.00,,,0.00,meteohub,2013-03-04 12:16:00,
2013-03-04 06:21:00,23.7,13.3,30.17,NW,315,8.0,13.0,64,0.00,,,0.00,meteohub,2013-03-04 12:21:00,
2013-03-04 06:26:00,23.5,13.5,30.17,NE,45,15.0,15.0,65,0.00,,,0.00,meteohub,2013-03-04 12:26:00,
2013-03-04 06:31:00,23.4,13.6,30.17,North,0,11.0,15.0,66,0.00,,,0.00,meteohub,2013-03-04 12:31:00,
2013-03-04 06:36:00,23.4,14.0,30.17,NW,315,5.0,16.0,67,0.00,,,0.00,meteohub,2013-03-04 12:36:00,
2013-03-04 06:41:00,23.2,14.5,30.17,North,0,11.0,16.0,69,0.00,,,0.00,meteohub,2013-03-04 12:41:00,
2013-03-04 06:46:00,23.0,14.7,30.17,North,0,11.0,16.0,70,0.00,,,0.00,meteohub,2013-03-04 12:46:00,
2013-03-04 06:51:00,23.0,15.1,30.17,NW,315,6.0,14.0,71,0.00,,,0.00,meteohub,2013-03-04 12:51:00,
2013-03-04 06:56:00,22.8,15.4,30.17,North,0,8.0,14.0,73,0.00,,,0.00,meteohub,2013-03-04 12:56:00,
2013-03-04 07:01:00,22.6,15.3,30.16,NW,315,15.0,15.0,73,0.00,,,0.00,meteohub,2013-03-04 13:01:00,
2013-03-04 07:06:00,22.6,15.6,30.16,North,0,13.0,15.0,74,0.00,,,0.00,meteohub,2013-03-04 13:06:00,
2013-03-04 07:11:00,22.6,16.0,30.16,North,0,7.0,15.0,75,0.00,,,0.00,meteohub,2013-03-04 13:11:00,
2013-03-04 07:16:00,22.6,16.0,30.17,North,0,7.0,15.0,75,0.00,,,0.00,meteohub,2013-03-04 13:16:00,
2013-03-04 07:21:00,22.6,16.0,30.17,NW,315,8.0,14.0,75,0.00,,,0.00,meteohub,2013-03-04 13:21:00,
2013-03-04 07:26:00,22.6,16.2,30.16,WNW,293,13.0,13.0,76,0.00,,,0.00,meteohub,2013-03-04 13:26:00,
2013-03-04 07:31:00,22.6,16.2,30.16,North,0,5.0,15.0,76,0.00,,,0.00,meteohub,2013-03-04 13:31:00,
2013-03-04 07:36:00,22.6,16.2,30.16,North,0,12.0,15.0,76,0.00,,,0.00,meteohub,2013-03-04 13:36:00,
2013-03-04 07:41:00,22.6,16.2,30.17,NW,315,8.0,15.0,76,0.00,,,0.00,meteohub,2013-03-04 13:41:00,
2013-03-04 07:46:00,22.6,16.5,30.17,WNW,293,5.0,14.0,77,0.00,,,0.00,meteohub,2013-03-04 13:46:00,
2013-03-04 07:51:00,22.6,16.5,30.17,NW,315,7.0,14.0,77,0.00,,,0.00,meteohub,2013-03-04 13:51:00,
2013-03-04 07:56:00,22.6,16.5,30.17,NE,45,12.0,14.0,77,0.00,,,0.00,meteohub,2013-03-04 13:56:00,
2013-03-04 08:01:00,22.6,16.5,30.17,NNW,338,15.0,17.0,77,0.00,,,0.00,meteohub,2013-03-04 14:01:00,
2013-03-04 08:06:00,22.6,16.5,30.17,NNW,338,15.0,17.0,77,0.00,,,0.00,meteohub,2013-03-04 14:06:00,
2013-03-04 08:11:00,22.6,16.5,30.17,NW,315,8.0,17.0,77,0.00,,,0.00,meteohub,2013-03-04 14:11:00,
2013-03-04 08:16:00,22.6,16.5,30.17,NW,315,8.0,15.0,77,0.00,,,0.00,meteohub,2013-03-04 14:16:00,
2013-03-04 08:22:00,22.6,16.5,30.18,NW,315,7.0,15.0,77,0.00,,,0.00,meteohub,2013-03-04 14:22:00,
2013-03-04 08:27:00,22.8,16.7,30.18,NW,315,12.0,12.0,77,0.00,,,0.00,meteohub,2013-03-04 14:27:00,
2013-03-04 08:32:00,22.8,16.7,30.17,North,0,8.0,12.0,77,0.00,,,0.00,meteohub,2013-03-04 14:32:00,
2013-03-04 08:37:00,22.8,16.7,30.18,North,0,9.0,12.0,77,0.00,,,0.00,meteohub,2013-03-04 14:37:00,
2013-03-04 08:42:00,22.8,16.7,30.17,North,0,5.0,12.0,77,0.00,,,0.00,meteohub,2013-03-04 14:42:00,
2013-03-04 08:47:00,23.0,16.5,30.17,NW,315,6.0,12.0,76,0.00,,,0.00,meteohub,2013-03-04 14:47:00,
2013-03-04 08:52:00,22.8,16.7,30.17,North,0,9.0,12.0,77,0.00,,,0.00,meteohub,2013-03-04 14:52:00,
2013-03-04 08:57:00,23.0,16.5,30.18,NW,315,7.0,11.0,76,0.00,,,0.00,meteohub,2013-03-04 14:57:00,
2013-03-04 09:02:00,23.0,16.5,30.17,North,0,13.0,13.0,76,0.00,,,0.00,meteohub,2013-03-04 15:02:00,
2013-03-04 09:07:00,23.0,16.5,30.18,North,0,8.0,13.0,76,0.00,,,0.00,meteohub,2013-03-04 15:07:00,
2013-03-04 09:12:00,23.0,16.5,30.18,North,0,7.0,14.0,76,0.00,,,0.00,meteohub,2013-03-04 15:12:00,
2013-03-04 09:17:00,23.0,16.5,30.18,NE,45,10.0,18.0,76,0.00,,,0.00,meteohub,2013-03-04 15:17:00,
2013-03-04 09:22:00,23.0,16.5,30.18,North,0,13.0,18.0,76,0.00,,,0.00,meteohub,2013-03-04 15:22:00,
2013-03-04 09:27:00,23.2,16.7,30.18,North,0,11.0,18.0,76,0.00,,,0.00,meteohub,2013-03-04 15:27:00,
2013-03-04 09:32:00,23.2,16.7,30.17,North,0,10.0,15.0,76,0.00,,,0.00,meteohub,2013-03-04 15:32:00,
2013-03-04 09:37:00,23.4,16.9,30.17,North,0,5.0,15.0,76,0.00,,,0.00,meteohub,2013-03-04 15:37:00,
2013-03-04 09:42:00,23.4,16.9,30.17,NW,315,11.0,15.0,76,0.00,,,0.00,meteohub,2013-03-04 15:42:00,
2013-03-04 09:47:00,23.2,16.5,30.17,North,0,16.0,18.0,75,0.00,,,0.00,meteohub,2013-03-04 15:47:00,
2013-03-04 09:52:00,23.2,16.5,30.17,NW,315,10.0,18.0,75,0.00,,,0.00,meteohub,2013-03-04 15:52:00,
2013-03-04 09:57:00,23.4,16.3,30.17,NW,315,11.0,18.0,74,0.00,,,0.00,meteohub,2013-03-04 15:57:00,
2013-03-04 10:02:00,23.4,16.3,30.17,NW,315,11.0,16.0,74,0.00,,,0.00,meteohub,2013-03-04 16:02:00,
2013-03-04 10:07:00,23.4,16.3,30.17,NW,315,11.0,15.0,74,0.00,,,0.00,meteohub,2013-03-04 16:07:00,
2013-03-04 10:12:00,23.4,16.0,30.17,NW,315,9.0,11.0,73,0.00,,,0.00,meteohub,2013-03-04 16:12:00,
2013-03-04 10:17:00,23.5,16.2,30.17,North,0,13.0,15.0,73,0.00,,,0.00,meteohub,2013-03-04 16:17:00,
2013-03-04 10:22:00,23.5,15.8,30.17,North,0,8.0,15.0,72,0.00,,,0.00,meteohub,2013-03-04 16:22:00,
2013-03-04 10:27:00,23.7,15.6,30.17,NW,315,8.0,15.0,71,0.00,,,0.00,meteohub,2013-03-04 16:27:00,
2013-03-04 10:32:00,23.7,15.6,30.17,NW,315,14.0,14.0,71,0.00,,,0.00,meteohub,2013-03-04 16:32:00,
2013-03-04 10:37:00,23.5,15.3,30.18,NW,315,7.0,14.0,70,0.00,,,0.00,meteohub,2013-03-04 16:37:00,
2013-03-04 10:42:00,23.7,15.4,30.18,NW,315,8.0,14.0,70,0.00,,,0.00,meteohub,2013-03-04 16:42:00,
2013-03-04 10:47:00,23.7,15.4,30.17,NW,315,7.0,14.0,70,0.00,,,0.00,meteohub,2013-03-04 16:47:00,
2013-03-04 10:52:00,23.9,15.6,30.17,NW,315,6.0,12.0,70,0.00,,,0.00,meteohub,2013-03-04 16:52:00,
2013-03-04 10:57:00,23.9,15.6,30.17,NW,315,11.0,12.0,70,0.00,,,0.00,meteohub,2013-03-04 16:57:00,
2013-03-04 11:02:00,24.1,15.4,30.16,NW,315,9.0,11.0,69,0.00,,,0.00,meteohub,2013-03-04 17:02:00,
2013-03-04 11:07:00,24.1,15.1,30.16,NW,315,11.0,12.0,68,0.00,,,0.00,meteohub,2013-03-04 17:07:00,
2013-03-04 11:12:00,24.1,14.4,30.16,NW,315,6.0,12.0,66,0.00,,,0.00,meteohub,2013-03-04 17:12:00,
2013-03-04 11:17:00,24.3,14.2,30.17,North,0,8.0,14.0,65,0.00,,,0.00,meteohub,2013-03-04 17:17:00,
2013-03-04 11:22:00,24.3,13.8,30.16,North,0,11.0,14.0,64,0.00,,,0.00,meteohub,2013-03-04 17:22:00,
2013-03-04 11:27:00,24.3,13.5,30.16,WNW,293,10.0,15.0,63,0.00,,,0.00,meteohub,2013-03-04 17:27:00,
2013-03-04 11:32:00,24.4,13.3,30.16,NW,315,8.0,15.0,62,0.00,,,0.00,meteohub,2013-03-04 17:32:00,
2013-03-04 11:37:00,24.4,13.3,30.16,North,0,8.0,15.0,62,0.00,,,0.00,meteohub,2013-03-04 17:37:00,
2013-03-04 11:42:00,24.4,12.9,30.17,North,0,4.0,13.0,61,0.00,,,0.00,meteohub,2013-03-04 17:42:00,
2013-03-04 11:47:00,24.8,12.6,30.16,NNE,23,10.0,13.0,59,0.00,,,0.00,meteohub,2013-03-04 17:47:00,
2013-03-04 11:52:00,25.0,12.4,30.16,NW,315,7.0,15.0,58,0.00,,,0.00,meteohub,2013-03-04 17:52:00,
2013-03-04 11:57:00,25.2,12.0,30.16,North,0,9.0,15.0,57,0.00,,,0.00,meteohub,2013-03-04 17:57:00,
2013-03-04 12:02:00,25.3,11.5,30.16,North,0,9.0,15.0,55,0.00,,,0.00,meteohub,2013-03-04 18:02:00,
2013-03-04 12:07:00,25.7,10.6,30.15,North,0,14.0,14.0,52,0.00,,,0.00,meteohub,2013-03-04 18:07:00,
2013-03-04 12:13:00,25.5,10.8,30.15,North,0,9.0,16.0,53,0.00,,,0.00,meteohub,2013-03-04 18:13:00,
2013-03-04 12:18:00,25.2,10.9,30.15,NE,45,17.0,17.0,54,0.00,,,0.00,meteohub,2013-03-04 18:18:00,
2013-03-04 12:23:00,25.0,11.1,30.15,NW,315,8.0,17.0,55,0.00,,,0.00,meteohub,2013-03-04 18:23:00,
2013-03-04 12:28:00,24.8,11.3,30.15,North,0,9.0,17.0,56,0.00,,,0.00,meteohub,2013-03-04 18:28:00,
2013-03-04 12:30:00,24.6,11.5,30.15,NW,315,7.0,17.0,57,-99.99,,,0.00,meteohub,2013-03-04 18:30:00,
2013-03-04 12:31:00,24.6,12.0,30.15,NW,315,11.0,17.0,58,0.00,,,0.00,meteohub,2013-03-04 18:31:00,
2013-03-04 12:32:00,24.6,12.0,30.15,NW,315,12.0,17.0,58,0.00,,,0.00,meteohub,2013-03-04 18:32:00,
2013-03-04 12:33:00,24.6,12.0,30.16,NW,315,11.0,17.0,58,0.00,,,0.00,meteohub,2013-03-04 18:33:00,
2013-03-04 12:38:00,24.6,12.0,30.15,NW,315,8.0,15.0,58,0.00,,,0.00,meteohub,2013-03-04 18:38:00,
2013-03-04 12:43:00,24.8,11.7,30.15,West,270,11.0,12.0,57,0.00,,,0.00,meteohub,2013-03-04 18:43:00,
2013-03-04 12:48:00,25.2,11.7,30.15,NW,315,10.0,12.0,56,0.00,,,0.00,meteohub,2013-03-04 18:48:00,
2013-03-04 12:53:00,25.3,11.8,30.15,North,0,8.0,12.0,56,0.00,,,0.00,meteohub,2013-03-04 18:53:00,
2013-03-04 12:58:00,25.3,11.5,30.16,North,0,9.0,12.0,55,0.00,,,0.00,meteohub,2013-03-04 18:58:00,
2013-03-04 13:03:00,25.3,11.5,30.16,NNE,23,7.0,12.0,55,0.00,,,0.00,meteohub,2013-03-04 19:03:00,
2013-03-04 13:08:00,25.5,10.8,30.16,North,0,10.0,11.0,53,0.00,,,0.00,meteohub,2013-03-04 19:08:00,
2013-03-04 13:13:00,25.7,10.6,30.16,West,270,8.0,14.0,52,0.00,,,0.00,meteohub,2013-03-04 19:13:00,
2013-03-04 13:18:00,25.9,10.8,30.16,North,0,9.0,14.0,52,0.00,,,0.00,meteohub,2013-03-04 19:18:00,
2013-03-04 13:23:00,26.1,10.4,30.16,North,0,9.0,14.0,51,0.00,,,0.00,meteohub,2013-03-04 19:23:00,
2013-03-04 13:28:00,26.2,10.6,30.15,North,0,8.0,13.0,51,0.00,,,0.00,meteohub,2013-03-04 19:28:00,
2013-03-04 13:33:00,26.2,10.6,30.15,NW,315,8.0,13.0,51,0.00,,,0.00,meteohub,2013-03-04 19:33:00,
2013-03-04 13:38:00,26.4,10.8,30.14,North,0,10.0,10.0,51,0.00,,,0.00,meteohub,2013-03-04 19:38:00,
2013-03-04 13:43:00,26.6,10.0,30.14,North,0,15.0,15.0,49,0.00,,,0.00,meteohub,2013-03-04 19:43:00,
2013-03-04 13:48:00,26.6,9.1,30.14,NW,315,19.0,19.0,47,0.00,,,0.00,meteohub,2013-03-04 19:48:00,
2013-03-04 13:54:00,26.6,7.7,30.14,NW,315,15.0,19.0,44,0.00,,,0.00,meteohub,2013-03-04 19:54:00,
2013-03-04 13:59:00,26.6,7.2,30.14,North,0,11.0,19.0,43,0.00,,,0.00,meteohub,2013-03-04 19:59:00,
2013-03-04 14:04:00,26.6,6.6,30.14,North,0,12.0,19.0,42,0.00,,,0.00,meteohub,2013-03-04 20:04:00,
2013-03-04 14:09:00,26.4,6.4,30.14,NW,315,9.0,17.0,42,0.00,,,0.00,meteohub,2013-03-04 20:09:00,
2013-03-04 14:14:00,26.6,6.6,30.15,North,0,10.0,17.0,42,0.00,,,0.00,meteohub,2013-03-04 20:14:00,
2013-03-04 14:19:00,26.6,6.6,30.15,NW,315,8.0,12.0,42,0.00,,,0.00,meteohub,2013-03-04 20:19:00,
2013-03-04 14:24:00,26.6,6.6,30.15,NW,315,8.0,12.0,42,0.00,,,0.00,meteohub,2013-03-04 20:24:00,
2013-03-04 14:29:00,26.8,7.3,30.15,North,0,14.0,14.0,43,0.00,,,0.00,meteohub,2013-03-04 20:29:00,
2013-03-04 14:34:00,26.4,7.5,30.15,NW,315,11.0,14.0,44,0.00,,,0.00,meteohub,2013-03-04 20:34:00,
2013-03-04 14:39:00,26.2,7.7,30.16,North,0,11.0,15.0,45,0.00,,,0.00,meteohub,2013-03-04 20:39:00,
2013-03-04 14:44:00,26.2,7.7,30.16,North,0,15.0,15.0,45,0.00,,,0.00,meteohub,2013-03-04 20:44:00,
2013-03-04 14:49:00,26.1,7.7,30.16,North,0,11.0,15.0,45,0.00,,,0.00,meteohub,2013-03-04 20:49:00,
2013-03-04 14:54:00,26.1,7.7,30.15,North,0,9.0,15.0,45,0.00,,,0.00,meteohub,2013-03-04 20:54:00,
2013-03-04 14:59:00,26.1,8.1,30.16,NW,315,15.0,15.0,46,0.00,,,0.00,meteohub,2013-03-04 20:59:00,
2013-03-04 15:04:00,25.9,7.9,30.16,North,0,7.0,15.0,46,0.00,,,0.00,meteohub,2013-03-04 21:04:00,
2013-03-04 15:09:00,25.9,7.9,30.16,NW,315,5.0,15.0,46,0.00,,,0.00,meteohub,2013-03-04 21:09:00,
2013-03-04 15:14:00,25.7,8.8,30.16,NW,315,9.0,15.0,48,0.00,,,0.00,meteohub,2013-03-04 21:14:00,
2013-03-04 15:19:00,25.5,9.0,30.17,NW,315,9.0,14.0,49,0.00,,,0.00,meteohub,2013-03-04 21:19:00,
2013-03-04 15:25:00,25.3,8.8,30.17,NW,315,13.0,13.0,49,0.00,,,0.00,meteohub,2013-03-04 21:25:00,
2013-03-04 15:30:00,25.3,9.3,30.17,North,0,8.0,13.0,50,0.00,,,0.00,meteohub,2013-03-04 21:30:00,
2013-03-04 15:35:00,25.3,9.3,30.17,NW,315,13.0,13.0,50,0.00,,,0.00,meteohub,2013-03-04 21:35:00,
2013-03-04 15:40:00,25.2,9.5,30.17,North,0,7.0,19.0,51,0.00,,,0.00,meteohub,2013-03-04 21:40:00,
2013-03-04 15:45:00,25.2,10.0,30.17,North,0,5.0,19.0,52,0.00,,,0.00,meteohub,2013-03-04 21:45:00,
2013-03-04 15:50:00,25.2,10.0,30.17,North,0,10.0,19.0,52,0.00,,,0.00,meteohub,2013-03-04 21:50:00,
2013-03-04 15:55:00,25.2,10.4,30.17,North,0,6.0,11.0,53,0.00,,,0.00,meteohub,2013-03-04 21:55:00,
2013-03-04 16:00:00,25.2,10.9,30.18,North,0,7.0,11.0,54,0.00,,,0.00,meteohub,2013-03-04 22:00:00,
2013-03-04 16:05:00,25.2,10.9,30.18,North,0,7.0,11.0,54,0.00,,,0.00,meteohub,2013-03-04 22:05:00,
2013-03-04 16:10:00,25.0,11.5,30.17,WNW,293,8.0,11.0,56,0.00,,,0.00,meteohub,2013-03-04 22:10:00,
2013-03-04 16:15:00,24.8,11.7,30.18,NW,315,9.0,9.0,57,0.00,,,0.00,meteohub,2013-03-04 22:15:00,
2013-03-04 16:20:00,24.6,12.4,30.17,NW,315,5.0,10.0,59,0.00,,,0.00,meteohub,2013-03-04 22:20:00,
2013-03-04 16:25:00,24.6,12.7,30.18,North,0,7.0,10.0,60,0.00,,,0.00,meteohub,2013-03-04 22:25:00,
2013-03-04 16:30:00,24.6,12.7,30.17,North,0,11.0,11.0,60,0.00,,,0.00,meteohub,2013-03-04 22:30:00,
2013-03-04 16:35:00,24.4,12.9,30.18,West,270,10.0,12.0,61,0.00,,,0.00,meteohub,2013-03-04 22:35:00,
2013-03-04 16:40:00,24.4,12.9,30.17,NW,315,12.0,14.0,61,0.00,,,0.00,meteohub,2013-03-04 22:40:00,
2013-03-04 16:46:00,24.4,12.9,30.17,North,0,8.0,14.0,61,0.00,,,0.00,meteohub,2013-03-04 22:46:00,
2013-03-04 16:51:00,24.4,12.9,30.18,NW,315,7.0,14.0,61,0.00,,,0.00,meteohub,2013-03-04 22:51:00,
2013-03-04 16:56:00,24.4,12.9,30.18,NW,315,8.0,12.0,61,0.00,,,0.00,meteohub,2013-03-04 22:56:00,
2013-03-04 17:01:00,24.3,13.1,30.17,NW,315,9.0,13.0,62,0.00,,,0.00,meteohub,2013-03-04 23:01:00,
2013-03-04 17:06:00,24.3,13.1,30.17,NW,315,9.0,13.0,62,0.00,,,0.00,meteohub,2013-03-04 23:06:00,
2013-03-04 17:11:00,24.3,13.1,30.18,NW,315,8.0,13.0,62,0.00,,,0.00,meteohub,2013-03-04 23:11:00,
2013-03-04 17:16:00,24.3,13.1,30.17,North,0,6.0,12.0,62,0.00,,,0.00,meteohub,2013-03-04 23:16:00,
2013-03-04 17:21:00,24.3,13.1,30.17,North,0,11.0,11.0,62,0.00,,,0.00,meteohub,2013-03-04 23:21:00,
2013-03-04 17:26:00,24.3,13.5,30.18,West,270,10.0,13.0,63,0.00,,,0.00,meteohub,2013-03-04 23:26:00,
2013-03-04 17:31:00,24.3,13.5,30.18,NW,315,9.0,13.0,63,0.00,,,0.00,meteohub,2013-03-04 23:31:00,
2013-03-04 17:36:00,24.3,13.5,30.18,West,270,6.0,13.0,63,0.00,,,0.00,meteohub,2013-03-04 23:36:00,
2013-03-04 17:41:00,24.3,13.5,30.18,North,0,6.0,11.0,63,0.00,,,0.00,meteohub,2013-03-04 23:41:00,
2013-03-04 17:46:00,24.3,13.5,30.18,NW,315,8.0,11.0,63,0.00,,,0.00,meteohub,2013-03-04 23:46:00,
2013-03-04 17:51:00,24.3,13.8,30.17,West,270,9.0,11.0,64,0.00,,,0.00,meteohub,2013-03-04 23:51:00,
2013-03-04 17:56:00,24.3,13.8,30.18,NW,315,11.0,11.0,64,0.00,,,0.00,meteohub,2013-03-04 23:56:00,
2013-03-04 18:01:00,24.3,13.8,30.18,North,0,8.0,11.0,64,0.00,,,0.00,meteohub,2013-03-05 00:01:00,
2013-03-04 18:06:00,24.3,13.8,30.18,WNW,293,11.0,11.0,64,0.00,,,0.00,meteohub,2013-03-05 00:06:00,
2013-03-04 18:11:00,24.3,13.8,30.18,West,270,5.0,12.0,64,0.00,,,0.00,meteohub,2013-03-05 00:11:00,
2013-03-04 18:16:00,24.3,14.2,30.19,NW,315,9.0,12.0,65,0.00,,,0.00,meteohub,2013-03-05 00:16:00,
2013-03-04 18:22:00,24.3,14.2,30.18,NW,315,7.0,12.0,65,0.00,,,0.00,meteohub,2013-03-05 00:22:00,
2013-03-04 18:27:00,24.1,14.0,30.18,WNW,293,8.0,9.0,65,0.00,,,0.00,meteohub,2013-03-05 00:27:00,
2013-03-04 18:32:00,24.1,14.4,30.18,NW,315,10.0,10.0,66,0.00,,,0.00,meteohub,2013-03-05 00:32:00,
2013-03-04 18:37:00,24.1,14.4,30.18,NW,315,7.0,10.0,66,0.00,,,0.00,meteohub,2013-03-05 00:37:00,
2013-03-04 18:42:00,24.1,14.7,30.19,North,0,8.0,10.0,67,0.00,,,0.00,meteohub,2013-03-05 00:42:00,
2013-03-04 18:47:00,24.1,14.7,30.18,NW,315,6.0,10.0,67,0.00,,,0.00,meteohub,2013-03-05 00:47:00,
2013-03-04 18:52:00,24.1,15.1,30.19,NE,45,5.0,9.0,68,0.00,,,0.00,meteohub,2013-03-05 00:52:00,
2013-03-04 18:57:00,24.1,15.1,30.19,NW,315,4.0,10.0,68,0.00,,,0.00,meteohub,2013-03-05 00:57:00,
2013-03-04 19:02:00,24.1,15.1,30.19,North,0,3.0,10.0,68,0.00,,,0.00,meteohub,2013-03-05 01:02:00,
2013-03-04 19:07:00,24.1,15.1,30.20,NW,315,7.0,10.0,68,0.00,,,0.00,meteohub,2013-03-05 01:07:00,
2013-03-04 19:12:00,24.1,15.1,30.20,NW,315,6.0,9.0,68,0.00,,,0.00,meteohub,2013-03-05 01:12:00,
2013-03-04 19:17:00,23.9,15.3,30.19,NW,315,4.0,9.0,69,0.00,,,0.00,meteohub,2013-03-05 01:17:00,
2013-03-04 19:22:00,24.1,15.4,30.20,North,0,4.0,11.0,69,0.00,,,0.00,meteohub,2013-03-05 01:22:00,
2013-03-04 19:27:00,24.1,15.4,30.19,North,0,6.0,11.0,69,0.00,,,0.00,meteohub,2013-03-05 01:27:00,
2013-03-04 19:32:00,24.1,15.4,30.19,WNW,293,8.0,8.0,69,0.00,,,0.00,meteohub,2013-03-05 01:32:00,
2013-03-04 19:37:00,24.1,15.4,30.20,NW,315,5.0,8.0,69,0.00,,,0.00,meteohub,2013-03-05 01:37:00,
2013-03-04 19:42:00,24.1,15.4,30.20,North,0,3.0,8.0,69,0.00,,,0.00,meteohub,2013-03-05 01:42:00,
2013-03-04 19:47:00,24.1,15.4,30.20,NW,315,5.0,8.0,69,0.00,,,0.00,meteohub,2013-03-05 01:47:00,
2013-03-04 19:52:00,24.1,15.4,30.21,NW,315,4.0,8.0,69,0.00,,,0.00,meteohub,2013-03-05 01:52:00,
2013-03-04 19:58:00,24.1,15.8,30.21,North,0,5.0,7.0,70,0.00,,,0.00,meteohub,2013-03-05 01:58:00,
2013-03-04 20:03:00,23.9,15.6,30.22,WNW,293,3.0,7.0,70,0.00,,,0.00,meteohub,2013-03-05 02:03:00,
2013-03-04 20:08:00,23.7,15.4,30.22,NW,315,2.0,7.0,70,0.00,,,0.00,meteohub,2013-03-05 02:08:00,
2013-03-04 20:13:00,23.7,15.4,30.22,North,0,4.0,7.0,70,0.00,,,0.00,meteohub,2013-03-05 02:13:00,
2013-03-04 20:18:00,23.7,15.4,30.22,NW,315,3.0,4.0,70,0.00,,,0.00,meteohub,2013-03-05 02:18:00,
2013-03-04 20:23:00,23.7,15.6,30.22,North,0,2.0,4.0,71,0.00,,,0.00,meteohub,2013-03-05 02:23:00,
2013-03-04 20:28:00,23.7,15.6,30.23,NW,315,2.0,4.0,71,0.00,,,0.00,meteohub,2013-03-05 02:28:00,
2013-03-04 20:33:00,23.7,16.0,30.23,NW,315,2.0,3.0,72,0.00,,,0.00,meteohub,2013-03-05 02:33:00,
2013-03-04 20:38:00,23.7,16.0,30.23,North,0,4.0,4.0,72,0.00,,,0.00,meteohub,2013-03-05 02:38:00,
2013-03-04 20:43:00,23.7,16.0,30.23,NW,315,2.0,4.0,72,0.00,,,0.00,meteohub,2013-03-05 02:43:00,
2013-03-04 20:48:00,23.7,16.0,30.23,NW,315,3.0,4.0,72,0.00,,,0.00,meteohub,2013-03-05 02:48:00,
2013-03-04 20:53:00,23.7,16.0,30.23,NW,315,3.0,4.0,72,0.00,,,0.00,meteohub,2013-03-05 02:53:00,
2013-03-04 20:58:00,23.7,16.3,30.23,NW,315,2.0,11.0,73,0.00,,,0.00,meteohub,2013-03-05 02:58:00,
2013-03-04 21:03:00,23.7,16.3,30.23,NW,315,4.0,11.0,73,0.00,,,0.00,meteohub,2013-03-05 03:03:00,
2013-03-04 21:08:00,23.7,16.3,30.23,NW,315,4.0,4.0,73,0.00,,,0.00,meteohub,2013-03-05 03:08:00,
2013-03-04 21:13:00,23.7,16.7,30.23,NW,315,4.0,4.0,74,0.00,,,0.00,meteohub,2013-03-05 03:13:00,
2013-03-04 21:18:00,23.7,16.7,30.23,West,270,3.0,4.0,74,0.00,,,0.00,meteohub,2013-03-05 03:18:00,
2013-03-04 21:23:00,23.7,16.9,30.23,North,0,3.0,4.0,75,0.00,,,0.00,meteohub,2013-03-05 03:23:00,
2013-03-04 21:29:00,23.7,16.9,30.23,West,270,4.0,4.0,75,0.00,,,0.00,meteohub,2013-03-05 03:29:00,
2013-03-04 21:34:00,23.7,16.9,30.23,North,0,3.0,5.0,75,0.00,,,0.00,meteohub,2013-03-05 03:34:00,
2013-03-04 21:39:00,23.7,16.9,30.23,NW,315,4.0,5.0,75,0.00,,,0.00,meteohub,2013-03-05 03:39:00,
2013-03-04 21:44:00,23.7,16.9,30.23,NW,315,2.0,5.0,75,0.00,,,0.00,meteohub,2013-03-05 03:44:00,
2013-03-04 21:49:00,23.7,16.9,30.23,NW,315,4.0,4.0,75,0.00,,,0.00,meteohub,2013-03-05 03:49:00,
2013-03-04 21:54:00,23.9,17.1,30.23,NW,315,4.0,4.0,75,0.00,,,0.00,meteohub,2013-03-05 03:54:00,
2013-03-04 21:59:00,23.9,17.1,30.22,North,0,4.0,4.0,75,0.00,,,0.00,meteohub,2013-03-05 03:59:00,
2013-03-04 22:04:00,23.9,17.1,30.22,NW,315,4.0,4.0,75,0.00,,,0.00,meteohub,2013-03-05 04:04:00,
2013-03-04 22:09:00,23.9,17.1,30.22,NW,315,4.0,4.0,75,0.00,,,0.00,meteohub,2013-03-05 04:09:00,
2013-03-04 22:14:00,23.9,17.1,30.22,NW,315,4.0,6.0,75,0.00,,,0.00,meteohub,2013-03-05 04:14:00,
2013-03-04 22:19:00,23.9,17.1,30.22,NW,315,2.0,6.0,75,0.00,,,0.00,meteohub,2013-03-05 04:19:00,
2013-03-04 22:24:00,23.9,17.1,30.22,NW,315,4.0,6.0,75,0.00,,,0.00,meteohub,2013-03-05 04:24:00,
2013-03-04 22:29:00,23.9,17.1,30.23,North,0,7.0,7.0,75,0.00,,,0.00,meteohub,2013-03-05 04:29:00,
2013-03-04 22:34:00,23.9,17.4,30.23,North,0,4.0,6.0,76,0.00,,,0.00,meteohub,2013-03-05 04:34:00,
2013-03-04 22:39:00,23.9,17.4,30.22,North,0,4.0,7.0,76,0.00,,,0.00,meteohub,2013-03-05 04:39:00,
2013-03-04 22:44:00,23.9,17.4,30.22,North,0,5.0,7.0,76,0.00,,,0.00,meteohub,2013-03-05 04:44:00,
2013-03-04 22:50:00,23.9,17.4,30.22,North,0,5.0,8.0,76,0.00,,,0.00,meteohub,2013-03-05 04:50:00,
2013-03-04 22:55:00,23.9,17.4,30.22,WNW,293,6.0,8.0,76,0.00,,,0.00,meteohub,2013-03-05 04:55:00,
2013-03-04 23:00:00,23.9,17.8,30.22,NNW,338,8.0,8.0,77,0.00,,,0.00,meteohub,2013-03-05 05:00:00,
2013-03-04 23:01:00,23.9,17.8,30.22,North,0,4.0,7.0,77,0.00,,,0.00,meteohub,2013-03-05 05:01:00,
2013-03-04 23:02:00,23.9,17.8,30.22,NW,315,4.0,7.0,77,0.00,,,0.00,meteohub,2013-03-05 05:02:00,
2013-03-04 23:07:00,23.9,17.8,30.22,North,0,6.0,8.0,77,0.00,,,0.00,meteohub,2013-03-05 05:07:00,
2013-03-04 23:12:00,23.9,17.8,30.22,North,0,6.0,8.0,77,0.00,,,0.00,meteohub,2013-03-05 05:12:00,
2013-03-04 23:17:00,23.9,17.8,30.21,North,0,5.0,8.0,77,0.00,,,0.00,meteohub,2013-03-05 05:17:00,
2013-03-04 23:22:00,23.9,17.8,30.21,NW,315,4.0,7.0,77,0.00,,,0.00,meteohub,2013-03-05 05:22:00,
2013-03-04 23:27:00,23.9,18.0,30.21,NW,315,4.0,7.0,78,0.00,,,0.00,meteohub,2013-03-05 05:27:00,
2013-03-04 23:32:00,23.9,18.0,30.21,North,0,4.0,5.0,78,0.00,,,0.00,meteohub,2013-03-05 05:32:00,
2013-03-04 23:37:00,24.1,18.1,30.20,North,0,3.0,5.0,78,0.00,,,0.00,meteohub,2013-03-05 05:37:00,
2013-03-04 23:42:00,24.1,18.1,30.20,NW,315,3.0,5.0,78,0.00,,,0.00,meteohub,2013-03-05 05:42:00,
2013-03-04 23:47:00,24.1,18.1,30.20,NW,315,4.0,6.0,78,0.00,,,0.00,meteohub,2013-03-05 05:47:00,
2013-03-04 23:52:00,24.1,18.5,30.20,NW,315,4.0,6.0,79,0.00,,,0.00,meteohub,2013-03-05 05:52:00,
2013-03-04 23:57:00,24.1,18.5,30.20,NW,315,3.0,8.0,79,0.00,,,0.00,meteohub,2013-03-05 05:57:00,